sim
Sign-in with your pilot id or email,
or register
Callsign
Passwort

Schedule Details

Flight Number: DLH2716
Departure: Munich Airport (EDDM) at 06:15
Arrival: Dusseldorf International Airport (EDDL) at 07:25
Route: Lufthansa Passenger Schedule. Enter filed route here before submitting Pirep.

Weather Information
Getting current METAR information for EDDM 231550Z 27006KT 9999 FEW040 19/14 Q1009 NOSIG
Getting current METAR information for EDDL 231550Z 22012KT 9999 FEW056TCU 23/10 Q1003 NOSIG

Schedule Frequency

Route Map